EKBI/BLL METAR and TAF weather

Enter ICAO airport designator
Station Type Date Time Source
EKBI METAR 2020/09/26 23:50 UTC NOAA

EKBI 262350Z AUTO 03013KT 9999 OVC008/// 15/14 Q1001


Station Type Date Time Source
EKBI Decoded METAR 2020/09/26 23:50 UTC NOAA

Billund Lufthavn, Denmark (EKBI) 55-44N 009-10E 79M
Sep 26, 2020 - 07:50 PM EDT / 2020.09.26 2350 UTC
Wind: from the NNE (030 degrees) at 15 MPH (13 KT):0
Visibility: greater than 7 mile(s):0
Sky conditions: overcast
Temperature: 59 F (15 C)
Dew Point: 57 F (14 C)
Relative Humidity: 93%
Pressure (altimeter): 29.56 in. Hg (1001 hPa)
ob: EKBI 262350Z AUTO 03013KT 9999 OVC008/// 15/14 Q1001
cycle: 0

Station Type Date Time Source
EKBI TAF 2020/09/26 20:27 UTC NOAA

TAF
AMD TAF
AMD EKBI 262024Z 2620/2718 03012KT 9999 BKN020
TEMPO 2620/2709 3000 BR BKN008
TEMPO 2709/2712 BKN012

Example: see airport list